Time;durP1;ratioP1;P1;durP2;ratioP2;P2;SDS_P1;SDS_P2;PMS_P1;PMS_P2;Temp;Humidity;BMP_temperature;BMP_pressure;BME280_temperature;BME280_humidity;BME280_pressure;Samples;Min_cycle;Max_cycle;Signal;HPM_P1;HPM_P2
2023/07/02 00:01:15;;;;;;;0.68;0.68;;;16.60;99.90;;;;;;5148546;27;20053;-88
2023/07/02 00:03:40;;;;;;;0.65;0.65;;;16.50;99.90;;;;;;5149784;27;20042;-90
2023/07/02 00:06:06;;;;;;;0.60;0.60;;;16.50;99.90;;;;;;5131823;27;20070;-90
2023/07/02 00:08:32;;;;;;;0.60;0.60;;;16.60;99.90;;;;;;5128957;27;20076;-91
2023/07/02 00:10:58;;;;;;;0.60;0.60;;;16.50;99.90;;;;;;5129284;27;20156;-89
2023/07/02 00:13:23;;;;;;;0.60;0.60;;;16.50;99.90;;;;;;5144409;27;20615;-88
2023/07/02 00:15:49;;;;;;;0.70;0.70;;;16.40;99.90;;;;;;5152323;27;20042;-88
2023/07/02 00:18:17;;;;;;;0.65;0.65;;;16.30;99.90;;;;;;5129854;27;20534;-87
2023/07/02 00:20:43;;;;;;;0.70;0.70;;;16.30;99.90;;;;;;5151619;27;20646;-88
2023/07/02 00:23:09;;;;;;;0.40;0.40;;;16.30;99.90;;;;;;5134920;27;20737;-87
2023/07/02 00:25:36;;;;;;;0.80;0.80;;;16.30;99.90;;;;;;5154741;27;20074;-89
2023/07/02 00:28:05;;;;;;;0.80;0.80;;;16.20;99.90;;;;;;5148581;27;20098;-89
2023/07/02 00:30:30;;;;;;;0.80;0.80;;;16.20;99.90;;;;;;5151560;27;20475;-89
2023/07/02 00:32:56;;;;;;;0.80;0.80;;;16.10;99.90;;;;;;5143067;27;20038;-87
2023/07/02 00:35:22;;;;;;;0.80;0.80;;;16.10;99.90;;;;;;5144524;27;20050;-88
2023/07/02 00:37:49;;;;;;;0.80;0.80;;;16.00;99.90;;;;;;5132614;27;20041;-89
2023/07/02 00:40:15;;;;;;;0.80;0.80;;;16.10;99.90;;;;;;5132613;27;20046;-89
2023/07/02 00:42:40;;;;;;;0.70;0.70;;;16.00;99.90;;;;;;5150633;27;20041;-88
2023/07/02 00:45:07;;;;;;;0.90;0.90;;;16.00;99.90;;;;;;5143699;27;20054;-90
2023/07/02 00:47:34;;;;;;;0.80;0.80;;;16.00;99.90;;;;;;5125882;27;20102;-88
2023/07/02 00:50:01;;;;;;;0.88;0.88;;;16.00;99.90;;;;;;5149732;27;20042;-89
2023/07/02 00:52:27;;;;;;;0.80;0.80;;;16.10;99.90;;;;;;5124428;27;20099;-89
2023/07/02 00:54:53;;;;;;;0.80;0.80;;;16.10;99.90;;;;;;5145144;27;20038;-89
2023/07/02 00:57:19;;;;;;;0.80;0.80;;;16.20;99.90;;;;;;5142348;27;20038;-89
2023/07/02 00:59:45;;;;;;;0.80;0.80;;;16.20;99.90;;;;;;5148522;27;20119;-87
2023/07/02 01:02:12;;;;;;;0.80;0.80;;;16.20;99.90;;;;;;5137879;27;20058;-89
2023/07/02 01:04:38;;;;;;;0.80;0.80;;;16.20;99.90;;;;;;5127214;27;20107;-89
2023/07/02 01:07:09;;;;;;;0.80;0.80;;;16.20;99.90;;;;;;5153263;27;20592;-89
2023/07/02 01:09:35;;;;;;;0.80;0.80;;;16.30;99.90;;;;;;5151621;27;20145;-89
2023/07/02 01:12:05;;;;;;;0.80;0.80;;;16.20;99.90;;;;;;5142456;27;20124;-89
2023/07/02 01:14:43;;;;;;;0.80;0.80;;;16.20;99.90;;;;;;5143349;27;20046;-89
2023/07/02 01:17:10;;;;;;;0.80;0.80;;;16.20;99.90;;;;;;5137871;27;20040;-92
2023/07/02 01:19:53;;;;;;;0.70;0.70;;;16.30;99.90;;;;;;5128560;27;20042;-89
2023/07/02 01:22:22;;;;;;;0.80;0.80;;;16.30;99.90;;;;;;5144897;27;20050;-90
2023/07/02 01:24:48;;;;;;;0.80;0.80;;;16.30;99.90;;;;;;5145113;27;20106;-90
2023/07/02 01:27:15;;;;;;;0.73;0.73;;;16.30;99.90;;;;;;5131723;27;20078;-87
2023/07/02 01:29:41;;;;;;;0.80;0.80;;;16.30;99.90;;;;;;5144643;27;20050;-89
2023/07/02 01:32:08;;;;;;;0.80;0.80;;;16.20;99.90;;;;;;5146204;27;20052;-88
2023/07/02 01:34:34;;;;;;;0.80;0.80;;;16.20;99.90;;;;;;5142853;27;20103;-87
2023/07/02 01:37:00;;;;;;;0.80;0.80;;;16.20;99.90;;;;;;5150023;27;20091;-89
2023/07/02 01:39:26;;;;;;;0.75;0.75;;;16.10;99.90;;;;;;5141394;27;20064;-91
2023/07/02 01:41:54;;;;;;;0.82;0.82;;;16.00;99.90;;;;;;5127490;27;20670;-88
2023/07/02 01:44:20;;;;;;;0.73;0.73;;;16.00;99.90;;;;;;5147102;27;20037;-91
2023/07/02 01:46:48;;;;;;;0.70;0.70;;;15.90;99.90;;;;;;5151699;27;20042;-88
2023/07/02 01:49:23;;;;;;;0.75;0.75;;;15.80;99.90;;;;;;5125167;27;20034;-89
2023/07/02 01:51:50;;;;;;;0.80;0.80;;;15.80;99.90;;;;;;5147891;27;20053;-87
2023/07/02 01:54:15;;;;;;;0.90;0.90;;;15.70;99.90;;;;;;5140293;27;20046;-90
2023/07/02 01:56:41;;;;;;;0.93;0.93;;;15.70;99.90;;;;;;5151336;27;20052;-86
2023/07/02 01:59:07;;;;;;;0.90;0.90;;;15.70;99.90;;;;;;5135551;27;20035;-88
2023/07/02 02:01:32;;;;;;;0.95;0.95;;;15.70;99.90;;;;;;5149072;27;20392;-89
2023/07/02 02:03:58;;;;;;;0.98;0.98;;;15.70;99.90;;;;;;5143323;27;20046;-87
2023/07/02 02:06:24;;;;;;;0.90;0.90;;;15.70;99.90;;;;;;5143990;27;20193;-88
2023/07/02 02:08:50;;;;;;;1.00;1.00;;;15.70;99.90;;;;;;5149435;27;20056;-88
2023/07/02 02:11:15;;;;;;;1.02;1.02;;;15.60;99.90;;;;;;5145658;27;20042;-88
2023/07/02 02:13:41;;;;;;;1.00;1.00;;;15.50;99.90;;;;;;5144961;27;20038;-89
2023/07/02 02:16:07;;;;;;;1.00;1.00;;;15.40;99.90;;;;;;5144525;27;20034;-89
2023/07/02 02:18:33;;;;;;;1.10;1.10;;;15.40;99.90;;;;;;5132756;27;20129;-87
2023/07/02 02:20:58;;;;;;;1.10;1.10;;;15.40;99.90;;;;;;5134429;27;20051;-89
2023/07/02 02:23:24;;;;;;;1.00;1.00;;;15.20;99.90;;;;;;5152916;27;20046;-89
2023/07/02 02:25:50;;;;;;;0.95;0.95;;;15.20;99.90;;;;;;5131415;27;20041;-87
2023/07/02 02:28:15;;;;;;;1.00;1.00;;;15.10;99.90;;;;;;5129878;27;20400;-87
2023/07/02 02:30:41;;;;;;;0.90;0.90;;;15.00;99.90;;;;;;5124957;27;20875;-88
2023/07/02 02:33:06;;;;;;;1.00;1.00;;;14.90;99.90;;;;;;5121694;27;20126;-88
2023/07/02 02:35:32;;;;;;;0.90;0.90;;;14.90;99.90;;;;;;5149458;27;20081;-88
2023/07/02 02:38:01;;;;;;;1.00;1.00;;;14.90;99.90;;;;;;5147993;27;20047;-89
2023/07/02 02:40:26;;;;;;;0.93;0.93;;;14.80;99.90;;;;;;5143522;27;20042;-89
2023/07/02 02:42:52;;;;;;;0.90;0.90;;;14.80;99.90;;;;;;5156447;27;20061;-87
2023/07/02 02:45:18;;;;;;;0.90;0.90;;;14.70;99.90;;;;;;5152671;27;21189;-89
2023/07/02 02:47:45;;;;;;;0.90;0.90;;;14.70;99.90;;;;;;5133002;27;20046;-88
2023/07/02 02:50:12;;;;;;;0.90;0.90;;;14.70;99.90;;;;;;5149546;27;20034;-87
2023/07/02 02:52:38;;;;;;;0.90;0.90;;;14.60;99.90;;;;;;5161650;27;20062;-89
2023/07/02 02:55:06;;;;;;;0.90;0.90;;;14.60;99.90;;;;;;5140349;27;20119;-87
2023/07/02 02:57:32;;;;;;;0.90;0.90;;;14.50;99.90;;;;;;5153358;27;20061;-88
2023/07/02 02:59:58;;;;;;;0.90;0.90;;;14.50;99.90;;;;;;5148607;27;20077;-86
2023/07/02 03:02:24;;;;;;;1.00;1.00;;;14.50;99.90;;;;;;5148110;27;20053;-88
2023/07/02 03:04:52;;;;;;;1.10;1.10;;;14.50;99.90;;;;;;5139226;27;20042;-87
2023/07/02 03:07:17;;;;;;;1.00;1.00;;;14.40;99.90;;;;;;5156063;27;20043;-87
2023/07/02 03:09:43;;;;;;;1.00;1.00;;;14.40;99.90;;;;;;5156128;27;20046;-89
2023/07/02 03:12:09;;;;;;;1.00;1.00;;;14.40;99.90;;;;;;5136975;27;20048;-88
2023/07/02 03:14:35;;;;;;;1.00;1.00;;;14.40;99.90;;;;;;5131471;27;20050;-88
2023/07/02 03:17:00;;;;;;;1.08;1.08;;;14.40;99.90;;;;;;5150598;27;20038;-90
2023/07/02 03:19:26;;;;;;;1.27;1.27;;;14.40;99.90;;;;;;5157565;27;20187;-88
2023/07/02 03:21:52;;;;;;;1.45;1.38;;;14.40;99.90;;;;;;5136910;27;20049;-92
2023/07/02 03:24:18;;;;;;;1.67;1.58;;;14.30;99.90;;;;;;5129874;27;20052;-90
2023/07/02 03:26:43;;;;;;;1.67;1.58;;;14.30;99.90;;;;;;5144225;27;20046;-88
2023/07/02 03:29:10;;;;;;;1.50;1.42;;;14.30;99.90;;;;;;5150767;27;20649;-87
2023/07/02 03:31:36;;;;;;;1.50;1.42;;;14.30;99.90;;;;;;5161951;27;20046;-88
2023/07/02 03:34:08;;;;;;;1.90;1.80;;;14.20;99.90;;;;;;5132425;27;20038;-87
2023/07/02 03:36:34;;;;;;;0.50;0.50;;;14.10;99.90;;;;;;5143015;27;20050;-87
2023/07/02 03:39:00;;;;;;;2.22;2.13;;;14.00;99.90;;;;;;5153368;27;20043;-86
2023/07/02 03:41:26;;;;;;;2.25;2.15;;;14.00;99.90;;;;;;5149103;27;20456;-87
2023/07/02 03:43:51;;;;;;;2.25;2.15;;;14.00;99.90;;;;;;5150156;27;20035;-86
2023/07/02 03:46:17;;;;;;;2.25;2.15;;;14.00;99.90;;;;;;5146723;27;20402;-85
2023/07/02 03:48:43;;;;;;;2.00;1.90;;;14.00;99.90;;;;;;5148762;27;20078;-87
2023/07/02 03:51:08;;;;;;;2.50;2.40;;;14.00;99.90;;;;;;5148273;27;20041;-86
2023/07/02 03:53:34;;;;;;;2.05;1.95;;;14.00;99.90;;;;;;5144934;27;20058;-87
2023/07/02 03:56:00;;;;;;;2.20;2.10;;;14.00;99.90;;;;;;5134285;27;20049;-87
2023/07/02 03:58:26;;;;;;;2.17;2.08;;;13.90;99.90;;;;;;5150482;27;20054;-86
2023/07/02 04:00:51;;;;;;;2.15;2.05;;;14.00;99.90;;;;;;5130556;27;20487;-86
2023/07/02 04:03:17;;;;;;;2.17;2.08;;;14.00;99.90;;;;;;5145929;27;20050;-88
2023/07/02 04:05:44;;;;;;;2.17;2.08;;;14.00;99.90;;;;;;5138200;27;20038;-88
2023/07/02 04:08:09;;;;;;;2.08;1.98;;;14.10;99.90;;;;;;5151194;27;20035;-90
2023/07/02 04:10:35;;;;;;;1.98;1.88;;;14.10;99.90;;;;;;5155369;27;20794;-84
2023/07/02 04:13:01;;;;;;;2.00;1.90;;;14.20;99.90;;;;;;5148924;27;20589;-86
2023/07/02 04:15:27;;;;;;;2.10;2.00;;;14.20;99.90;;;;;;5147699;27;20056;-92
2023/07/02 04:17:52;;;;;;;2.08;1.98;;;14.30;99.90;;;;;;5136122;27;20046;-89
2023/07/02 04:20:19;;;;;;;2.05;1.95;;;14.30;99.90;;;;;;5146859;27;20052;-88
2023/07/02 04:22:46;;;;;;;1.98;1.88;;;14.30;99.90;;;;;;5154698;27;20562;-86
2023/07/02 04:25:15;;;;;;;1.95;1.85;;;14.40;99.90;;;;;;5141894;27;20102;-88
2023/07/02 04:27:44;;;;;;;2.00;1.90;;;14.50;99.90;;;;;;5129700;27;20079;-91
2023/07/02 04:30:11;;;;;;;2.10;2.00;;;14.50;99.90;;;;;;5153306;27;20068;-87
2023/07/02 04:32:39;;;;;;;2.15;2.05;;;14.60;99.90;;;;;;5146300;27;20043;-85
2023/07/02 04:35:06;;;;;;;2.25;2.15;;;14.70;99.90;;;;;;5142606;27;20042;-86
2023/07/02 04:37:31;;;;;;;2.28;2.17;;;14.70;99.90;;;;;;5143513;27;20041;-88
2023/07/02 04:39:57;;;;;;;2.20;2.10;;;14.80;99.90;;;;;;5149209;27;20065;-86
2023/07/02 04:42:27;;;;;;;2.15;2.05;;;14.80;99.90;;;;;;5131203;27;20129;-87
2023/07/02 04:44:54;;;;;;;1.83;1.73;;;14.90;99.90;;;;;;5141381;27;20493;-87
2023/07/02 04:47:20;;;;;;;1.55;1.45;;;15.80;99.90;;;;;;5146971;27;20048;-88
2023/07/02 04:49:46;;;;;;;1.38;1.35;;;16.20;99.90;;;;;;5148862;27;20041;-88
2023/07/02 04:52:12;;;;;;;1.30;1.30;;;17.70;99.90;;;;;;5145666;27;20038;-87
2023/07/02 04:54:37;;;;;;;1.05;1.05;;;18.50;99.90;;;;;;5126789;27;20042;-86
2023/07/02 04:57:03;;;;;;;1.20;1.20;;;19.40;99.90;;;;;;5140404;27;20086;-84
2023/07/02 04:59:29;;;;;;;1.17;1.17;;;19.70;99.90;;;;;;5144688;27;20057;-86
2023/07/02 05:01:55;;;;;;;0.90;0.90;;;20.30;99.90;;;;;;5143559;27;20045;-88
2023/07/02 05:04:20;;;;;;;1.05;1.05;;;20.70;99.90;;;;;;5151825;27;20614;-86
2023/07/02 05:06:46;;;;;;;1.50;1.40;;;20.90;99.90;;;;;;5127502;27;20091;-89
2023/07/02 05:09:11;;;;;;;1.50;1.40;;;21.80;99.90;;;;;;5128458;27;20042;-87
2023/07/02 05:11:37;;;;;;;1.38;1.38;;;22.20;99.90;;;;;;5129588;27;20057;-89
2023/07/02 05:14:03;;;;;;;1.48;1.38;;;21.80;99.90;;;;;;5142309;27;20055;-90
2023/07/02 05:16:29;;;;;;;1.33;1.33;;;22.40;99.90;;;;;;5133317;27;20053;-89
2023/07/02 05:18:54;;;;;;;1.30;1.30;;;22.40;99.90;;;;;;5145481;27;20053;-88
2023/07/02 05:21:20;;;;;;;1.20;1.20;;;22.50;99.90;;;;;;5147610;27;20054;-87
2023/07/02 05:23:47;;;;;;;1.05;1.05;;;22.80;99.90;;;;;;5148662;27;20042;-87
2023/07/02 05:26:12;;;;;;;1.20;1.20;;;22.60;99.90;;;;;;5150201;27;20129;-85
2023/07/02 05:28:38;;;;;;;1.10;1.10;;;23.30;99.90;;;;;;5143538;27;20530;-85
2023/07/02 05:31:04;;;;;;;1.20;1.20;;;23.30;99.90;;;;;;5145362;27;20038;-86
2023/07/02 05:33:32;;;;;;;1.20;1.20;;;23.20;99.90;;;;;;5153704;27;20162;-88
2023/07/02 05:35:58;;;;;;;1.02;1.02;;;22.70;99.90;;;;;;5145684;27;20090;-87
2023/07/02 05:38:24;;;;;;;1.00;1.00;;;23.50;99.90;;;;;;5141399;27;20459;-83
2023/07/02 05:40:50;;;;;;;1.00;1.00;;;23.00;99.90;;;;;;5140024;27;20591;-84
2023/07/02 05:43:16;;;;;;;1.08;1.08;;;23.20;99.90;;;;;;5155185;27;20178;-88
2023/07/02 05:45:41;;;;;;;0.90;0.90;;;22.80;99.90;;;;;;5146044;27;20932;-86
2023/07/02 05:48:07;;;;;;;0.90;0.90;;;23.10;99.90;;;;;;5149679;27;20038;-86
2023/07/02 05:50:33;;;;;;;0.80;0.80;;;22.60;99.90;;;;;;5128237;27;20042;-87
2023/07/02 05:52:59;;;;;;;0.80;0.80;;;20.60;99.90;;;;;;5146897;27;20823;-86
2023/07/02 05:55:24;;;;;;;0.70;0.70;;;20.30;99.90;;;;;;5134469;27;20057;-89
2023/07/02 05:57:50;;;;;;;0.70;0.70;;;20.20;99.90;;;;;;5149921;27;20057;-88
2023/07/02 06:00:16;;;;;;;0.60;0.60;;;19.60;99.90;;;;;;5148663;27;20121;-87
2023/07/02 06:02:41;;;;;;;0.70;0.70;;;19.80;99.90;;;;;;5138615;27;21065;-90
2023/07/02 06:05:08;;;;;;;0.70;0.70;;;19.80;99.90;;;;;;5143971;27;20107;-84
2023/07/02 06:07:33;;;;;;;0.70;0.70;;;19.70;99.90;;;;;;5145828;27;20103;-93
2023/07/02 06:09:59;;;;;;;0.60;0.60;;;19.70;99.90;;;;;;5147042;27;20121;-89
2023/07/02 06:12:25;;;;;;;0.70;0.70;;;19.60;99.90;;;;;;5130713;27;20145;-84
2023/07/02 06:14:50;;;;;;;0.80;0.80;;;19.40;99.90;;;;;;5143968;27;20573;-87
2023/07/02 06:17:16;;;;;;;0.70;0.70;;;19.50;99.90;;;;;;5143486;27;20133;-86
2023/07/02 06:19:42;;;;;;;0.70;0.70;;;19.30;99.90;;;;;;5133297;27;20065;-86
2023/07/02 06:22:10;;;;;;;0.70;0.70;;;19.40;99.90;;;;;;5136535;27;20077;-87
2023/07/02 06:24:36;;;;;;;0.70;0.70;;;19.30;99.90;;;;;;5126715;27;20061;-87
2023/07/02 06:27:02;;;;;;;0.70;0.70;;;19.50;99.90;;;;;;5154658;27;20038;-89
2023/07/02 06:29:28;;;;;;;0.70;0.70;;;19.50;99.90;;;;;;5142436;27;22284;-86
2023/07/02 06:31:57;;;;;;;0.70;0.70;;;19.30;99.90;;;;;;5155071;27;20046;-87
2023/07/02 06:34:26;;;;;;;0.80;0.80;;;19.40;99.90;;;;;;5149932;27;20045;-91
2023/07/02 06:36:52;;;;;;;0.70;0.70;;;19.80;99.90;;;;;;5146780;27;20143;-87
2023/07/02 06:39:17;;;;;;;0.70;0.70;;;20.20;99.90;;;;;;5133315;27;20038;-86
2023/07/02 06:41:46;;;;;;;0.85;0.85;;;20.00;99.90;;;;;;5145058;27;20046;-89
2023/07/02 06:44:12;;;;;;;0.90;0.90;;;20.00;99.90;;;;;;5143821;27;20773;-88
2023/07/02 06:46:37;;;;;;;0.80;0.80;;;19.80;99.90;;;;;;5153806;27;20073;-85
2023/07/02 06:49:03;;;;;;;0.80;0.80;;;20.10;99.90;;;;;;5149513;27;20784;-85
2023/07/02 06:51:29;;;;;;;0.90;0.90;;;19.80;99.90;;;;;;5132342;27;20137;-89
2023/07/02 06:53:55;;;;;;;0.93;0.93;;;20.00;99.90;;;;;;5148292;27;20081;-89
2023/07/02 06:56:20;;;;;;;0.90;0.90;;;20.00;99.90;;;;;;5141335;27;20471;-86
2023/07/02 06:58:46;;;;;;;0.90;0.90;;;20.20;99.90;;;;;;5147646;27;20042;-89
2023/07/02 07:01:12;;;;;;;0.90;0.90;;;20.10;99.90;;;;;;5151408;27;20043;-87
2023/07/02 07:03:37;;;;;;;0.90;0.90;;;20.00;99.90;;;;;;5143787;27;20045;-88
2023/07/02 07:06:03;;;;;;;0.80;0.80;;;20.20;99.90;;;;;;5138050;27;20046;-90
2023/07/02 07:08:38;;;;;;;0.90;0.90;;;20.20;99.90;;;;;;5123569;27;20046;-87
2023/07/02 07:11:04;;;;;;;0.90;0.90;;;20.10;99.90;;;;;;5128297;27;20038;-87
2023/07/02 07:13:30;;;;;;;1.00;1.00;;;20.20;99.90;;;;;;5134865;27;20040;-90
2023/07/02 07:15:55;;;;;;;0.90;0.90;;;19.80;99.90;;;;;;5145301;27;20070;-85
2023/07/02 07:18:21;;;;;;;0.90;0.90;;;19.40;99.90;;;;;;5142229;27;20046;-86
2023/07/02 07:20:47;;;;;;;0.80;0.80;;;19.00;99.90;;;;;;5131949;27;20385;-88
2023/07/02 07:23:14;;;;;;;0.80;0.80;;;19.00;99.90;;;;;;5149030;27;20035;-88
2023/07/02 07:25:39;;;;;;;0.77;0.77;;;18.70;99.90;;;;;;5152678;27;20368;-84
2023/07/02 07:28:05;;;;;;;0.80;0.80;;;18.80;99.90;;;;;;5156443;27;20052;-87
2023/07/02 07:30:31;;;;;;;0.75;0.75;;;19.10;99.90;;;;;;5151321;27;20133;-88
2023/07/02 07:32:56;;;;;;;0.70;0.70;;;19.60;99.90;;;;;;5153603;27;20078;-91
2023/07/02 07:35:22;;;;;;;0.80;0.80;;;19.50;99.90;;;;;;5150093;27;20038;-87
2023/07/02 07:37:48;;;;;;;0.80;0.80;;;19.80;99.90;;;;;;5132493;27;20050;-88
2023/07/02 07:40:14;;;;;;;0.80;0.80;;;19.80;99.90;;;;;;5153367;27;20455;-91
2023/07/02 07:42:41;;;;;;;0.70;0.70;;;19.70;99.90;;;;;;5132015;27;20091;-86
2023/07/02 07:45:08;;;;;;;0.70;0.70;;;20.10;99.90;;;;;;5155217;27;20082;-86
2023/07/02 07:47:34;;;;;;;0.70;0.70;;;20.10;99.90;;;;;;5139489;27;20041;-85
2023/07/02 07:50:00;;;;;;;0.75;0.75;;;20.20;99.90;;;;;;5149744;27;20049;-85
2023/07/02 07:52:25;;;;;;;0.80;0.80;;;20.20;99.90;;;;;;5149874;27;20054;-85
2023/07/02 07:54:51;;;;;;;0.80;0.80;;;19.60;99.90;;;;;;5150400;27;20035;-88
2023/07/02 07:57:17;;;;;;;0.75;0.75;;;19.20;99.90;;;;;;5129594;27;20498;-86
2023/07/02 07:59:42;;;;;;;1.45;1.35;;;19.00;99.90;;;;;;5147957;27;20061;-88
2023/07/02 08:02:09;;;;;;;0.70;0.70;;;18.80;99.90;;;;;;5129503;27;20038;-89
2023/07/02 08:04:34;;;;;;;0.95;0.80;;;18.80;99.90;;;;;;5146462;27;20046;-87
2023/07/02 08:07:00;;;;;;;0.70;0.70;;;18.80;99.90;;;;;;5150410;27;20057;-88
2023/07/02 08:09:25;;;;;;;0.80;0.80;;;18.60;99.90;;;;;;5140356;27;20033;-89
2023/07/02 08:11:51;;;;;;;0.70;0.70;;;18.50;99.90;;;;;;5132788;27;20042;-87
2023/07/02 08:14:20;;;;;;;0.70;0.70;;;18.30;99.90;;;;;;5136694;27;20095;-89
2023/07/02 08:16:46;;;;;;;0.60;0.60;;;18.10;99.90;;;;;;5150915;27;20477;-88
2023/07/02 08:19:11;;;;;;;0.60;0.60;;;17.90;99.90;;;;;;5132249;27;20130;-89
2023/07/02 08:21:37;;;;;;;0.63;0.63;;;17.80;99.90;;;;;;5137998;27;20098;-88
2023/07/02 08:24:03;;;;;;;0.50;0.50;;;18.00;99.90;;;;;;5143754;27;20049;-87
2023/07/02 08:26:30;;;;;;;0.60;0.60;;;19.00;99.90;;;;;;5153730;27;20049;-90
2023/07/02 08:28:59;;;;;;;0.60;0.60;;;19.70;99.90;;;;;;5154082;27;20505;-92
2023/07/02 08:31:24;;;;;;;0.60;0.60;;;20.20;99.90;;;;;;5150197;27;20034;-88
2023/07/02 08:33:50;;;;;;;0.60;0.60;;;20.50;99.90;;;;;;5153857;27;20718;-82
2023/07/02 08:36:16;;;;;;;0.70;0.70;;;20.50;99.90;;;;;;5149096;27;20045;-87
2023/07/02 08:38:43;;;;;;;0.70;0.70;;;20.10;99.90;;;;;;5145066;27;20050;-88
2023/07/02 08:41:09;;;;;;;0.60;0.60;;;19.50;99.90;;;;;;5131116;27;20125;-83
2023/07/02 08:43:36;;;;;;;0.60;0.60;;;19.80;99.90;;;;;;5172209;27;20542;-85
2023/07/02 08:46:02;;;;;;;0.60;0.60;;;20.50;99.90;;;;;;5150918;27;20065;-86
2023/07/02 08:48:29;;;;;;;0.65;0.65;;;20.80;99.90;;;;;;5152088;27;20680;-87
2023/07/02 08:50:58;;;;;;;0.60;0.60;;;21.30;99.90;;;;;;5149429;27;20050;-91
2023/07/02 08:53:29;;;;;;;0.60;0.60;;;21.70;99.90;;;;;;5142863;27;20050;-87
2023/07/02 08:55:55;;;;;;;0.60;0.60;;;21.00;99.90;;;;;;5146676;27;20041;-88
2023/07/02 08:58:21;;;;;;;0.63;0.63;;;20.80;99.90;;;;;;5148336;27;20073;-92
2023/07/02 09:01:07;;;;;;;1.05;1.05;;;20.70;99.90;;;;;;5132883;27;20474;-84
2023/07/02 09:03:33;;;;;;;1.10;1.10;;;21.30;99.90;;;;;;5149544;27;20493;-89
2023/07/02 09:06:02;;;;;;;1.00;1.00;;;21.40;99.90;;;;;;5127646;27;20042;-93
2023/07/02 09:08:28;;;;;;;1.08;1.08;;;21.10;99.90;;;;;;5135310;27;20045;-86
2023/07/02 09:11:07;;;;;;;1.13;1.13;;;20.60;99.90;;;;;;5146339;27;20046;-86
2023/07/02 09:13:46;;;;;;;1.27;1.27;;;20.60;99.90;;;;;;5147556;27;20133;-86
2023/07/02 09:16:25;;;;;;;1.27;1.27;;;20.10;99.90;;;;;;5128997;27;20047;-91
2023/07/02 09:19:01;;;;;;;1.30;1.30;;;20.20;99.90;;;;;;5132467;27;20083;-83
2023/07/02 09:21:46;;;;;;;1.30;1.30;;;20.60;99.90;;;;;;5146259;27;20510;-86
2023/07/02 09:24:19;;;;;;;1.30;1.30;;;20.60;99.90;;;;;;5142877;27;20506;-88
2023/07/02 09:26:50;;;;;;;1.30;1.30;;;20.20;99.90;;;;;;5149751;27;20117;-84
2023/07/02 09:29:29;;;;;;;1.30;1.30;;;19.80;99.90;;;;;;5144184;27;20066;-91
2023/07/02 09:31:57;;;;;;;1.30;1.30;;;19.80;99.90;;;;;;5143190;27;20049;-84
2023/07/02 09:34:33;;;;;;;1.30;1.30;;;20.20;99.90;;;;;;5145564;27;20528;-86
2023/07/02 09:37:00;;;;;;;1.50;1.40;;;19.90;99.90;;;;;;5145923;27;20034;-83
2023/07/02 09:39:31;;;;;;;1.30;1.30;;;19.60;99.90;;;;;;5147101;27;20081;-88
2023/07/02 09:41:58;;;;;;;1.50;1.40;;;19.30;99.90;;;;;;5147381;27;20042;-88
2023/07/02 09:44:32;;;;;;;1.50;1.40;;;19.30;99.90;;;;;;5161820;27;20419;-92
2023/07/02 09:47:06;;;;;;;1.40;1.35;;;19.20;99.90;;;;;;5141513;27;20415;-86
2023/07/02 09:49:36;;;;;;;1.90;1.80;;;19.20;99.90;;;;;;5142805;27;20220;-86
2023/07/02 09:52:09;;;;;;;1.90;1.80;;;20.40;99.90;;;;;;5143758;27;20076;-87
2023/07/02 09:54:36;;;;;;;1.80;1.70;;;20.30;99.90;;;;;;5115128;27;20503;-87
2023/07/02 09:57:03;;;;;;;1.77;1.67;;;20.20;99.90;;;;;;5125386;27;20472;-86
2023/07/02 09:59:29;;;;;;;1.65;1.55;;;20.20;99.90;;;;;;5149363;27;20125;-85
2023/07/02 10:01:55;;;;;;;1.63;1.52;;;20.00;99.90;;;;;;5144296;27;20043;-86
2023/07/02 10:04:25;;;;;;;1.67;1.58;;;19.90;99.90;;;;;;5127915;27;20045;-88
2023/07/02 10:06:52;;;;;;;1.73;1.63;;;19.90;99.90;;;;;;5146313;27;20035;-88
2023/07/02 10:09:19;;;;;;;2.10;2.00;;;20.20;99.90;;;;;;5150342;27;20600;-86
2023/07/02 10:11:45;;;;;;;2.00;1.90;;;21.10;99.90;;;;;;5144869;27;20372;-88
2023/07/02 10:14:11;;;;;;;1.85;1.75;;;20.80;99.90;;;;;;5142003;27;20049;-90
2023/07/02 10:16:55;;;;;;;1.70;1.60;;;20.80;99.90;;;;;;5149777;27;20073;-89
2023/07/02 10:19:21;;;;;;;1.65;1.55;;;20.70;99.90;;;;;;5129047;27;20562;-87
2023/07/02 10:22:01;;;;;;;1.70;1.60;;;20.80;99.90;;;;;;5149988;27;20046;-85
2023/07/02 10:24:27;;;;;;;1.70;1.60;;;20.90;99.90;;;;;;5146382;27;20047;-86
2023/07/02 10:26:58;;;;;;;1.52;1.42;;;20.90;99.90;;;;;;5128220;27;20143;-87
2023/07/02 10:29:28;;;;;;;1.27;1.27;;;20.40;99.90;;;;;;5144091;27;20047;-89
2023/07/02 10:31:55;;;;;;;1.35;1.33;;;19.90;99.90;;;;;;5149871;27;20042;-86
2023/07/02 10:34:35;;;;;;;1.50;1.40;;;19.60;99.90;;;;;;5145421;27;20080;-87
2023/07/02 10:37:02;;;;;;;1.50;1.40;;;19.30;99.90;;;;;;5150443;27;20050;-87
2023/07/02 10:39:31;;;;;;;1.70;1.60;;;19.10;99.90;;;;;;5128979;27;20440;-85
2023/07/02 10:42:07;;;;;;;1.58;1.48;;;19.00;99.90;;;;;;5125095;27;20046;-88
2023/07/02 10:44:49;;;;;;;1.35;1.33;;;18.90;99.90;;;;;;5148956;27;20046;-87
2023/07/02 10:47:14;;;;;;;1.45;1.38;;;18.70;99.90;;;;;;5129442;27;20042;-88
2023/07/02 10:49:40;;;;;;;1.60;1.50;;;18.90;99.90;;;;;;5143294;27;20038;-87
2023/07/02 10:52:09;;;;;;;1.65;1.55;;;19.20;99.90;;;;;;5148615;27;20627;-94
2023/07/02 10:54:42;;;;;;;1.55;1.45;;;19.10;99.90;;;;;;5134199;27;20034;-89
2023/07/02 10:57:09;;;;;;;1.55;1.45;;;19.00;99.90;;;;;;5136166;27;20038;-90
2023/07/02 10:59:35;;;;;;;1.65;1.55;;;19.00;99.90;;;;;;5132145;27;20050;-87
2023/07/02 11:02:03;;;;;;;1.83;1.73;;;19.10;99.90;;;;;;5153305;27;20056;-89
2023/07/02 11:04:30;;;;;;;2.00;1.90;;;19.30;99.90;;;;;;5157140;27;20046;-88
2023/07/02 11:06:56;;;;;;;2.10;2.00;;;19.70;99.90;;;;;;5155454;27;20046;-88
2023/07/02 11:09:22;;;;;;;2.10;2.00;;;20.90;99.90;;;;;;5155652;27;20041;-86
2023/07/02 11:11:59;;;;;;;2.03;1.92;;;21.50;99.90;;;;;;5150968;27;20060;-90
2023/07/02 11:14:35;;;;;;;2.05;1.95;;;21.10;99.90;;;;;;5130205;27;20104;-87
2023/07/02 11:17:05;;;;;;;2.10;2.00;;;21.00;99.90;;;;;;5146931;27;20570;-86
2023/07/02 11:19:31;;;;;;;1.92;1.83;;;21.80;99.90;;;;;;5151846;27;20057;-89
2023/07/02 11:21:58;;;;;;;1.70;1.60;;;22.60;99.90;;;;;;5155460;27;20042;-89
2023/07/02 11:24:34;;;;;;;1.90;1.80;;;23.00;99.90;;;;;;5154031;27;20600;-86
2023/07/02 11:27:02;;;;;;;1.80;1.70;;;23.00;99.90;;;;;;5146790;27;20046;-86
2023/07/02 11:29:33;;;;;;;1.70;1.60;;;23.00;99.90;;;;;;5152053;27;20639;-89
2023/07/02 11:32:09;;;;;;;1.60;1.50;;;23.20;99.90;;;;;;5138747;27;20048;-90
2023/07/02 11:34:35;;;;;;;1.60;1.50;;;23.50;99.90;;;;;;5154035;27;20041;-88
2023/07/02 11:37:01;;;;;;;1.30;1.30;;;23.20;99.90;;;;;;5145727;27;20534;-82
2023/07/02 11:39:27;;;;;;;1.17;1.17;;;23.20;99.90;;;;;;5148395;27;20078;-89
2023/07/02 11:41:53;;;;;;;1.00;1.00;;;23.50;98.50;;;;;;5148620;27;20042;-85
2023/07/02 11:44:19;;;;;;;0.90;0.90;;;23.10;98.70;;;;;;5152002;27;20038;-84
2023/07/02 11:46:46;;;;;;;0.80;0.80;;;22.50;98.50;;;;;;5147132;27;21037;-85
2023/07/02 11:49:12;;;;;;;0.70;0.70;;;23.20;99.70;;;;;;5133818;27;20114;-83
2023/07/02 11:51:39;;;;;;;0.70;0.70;;;23.30;99.20;;;;;;5147377;27;20129;-89
2023/07/02 11:54:05;;;;;;;0.80;0.80;;;22.40;98.70;;;;;;5156206;27;20046;-86
2023/07/02 11:56:32;;;;;;;0.90;0.90;;;21.50;99.30;;;;;;5152983;27;20042;-84
2023/07/02 11:58:58;;;;;;;0.80;0.80;;;21.30;99.90;;;;;;5143075;27;20046;-90
2023/07/02 12:01:23;;;;;;;0.75;0.75;;;21.90;99.90;;;;;;5152305;27;20452;-88
2023/07/02 12:03:49;;;;;;;0.70;0.70;;;21.90;99.90;;;;;;5151305;27;20038;-89
2023/07/02 12:06:15;;;;;;;0.70;0.70;;;21.90;99.90;;;;;;5149095;27;20077;-85
2023/07/02 12:08:41;;;;;;;0.77;0.77;;;21.80;99.90;;;;;;5150196;27;20050;-91
2023/07/02 12:11:07;;;;;;;0.70;0.70;;;21.30;98.90;;;;;;5148807;27;20061;-86
2023/07/02 12:13:32;;;;;;;0.80;0.80;;;20.90;99.00;;;;;;5133020;27;20053;-87
2023/07/02 12:15:58;;;;;;;0.70;0.70;;;20.60;99.90;;;;;;5126724;27;20038;-88
2023/07/02 12:18:24;;;;;;;0.73;0.73;;;21.00;99.90;;;;;;5149562;27;20054;-88
2023/07/02 12:20:49;;;;;;;0.77;0.77;;;22.00;99.90;;;;;;5136317;27;20445;-86
2023/07/02 12:23:15;;;;;;;0.80;0.80;;;22.40;99.90;;;;;;5147382;27;20045;-90
2023/07/02 12:25:41;;;;;;;1.10;1.10;;;22.90;99.90;;;;;;5129610;27;20091;-87
2023/07/02 12:28:06;;;;;;;0.70;0.70;;;22.90;98.30;;;;;;5167828;27;20041;-90
2023/07/02 12:30:32;;;;;;;0.85;0.85;;;22.00;98.10;;;;;;5142865;27;20064;-87
2023/07/02 12:32:58;;;;;;;0.98;0.98;;;21.40;98.20;;;;;;5145135;27;20098;-88
2023/07/02 12:35:24;;;;;;;1.00;1.00;;;21.20;98.40;;;;;;5142773;27;21362;-87
2023/07/02 12:37:51;;;;;;;1.38;1.30;;;21.30;98.50;;;;;;5130818;27;20117;-87
2023/07/02 12:40:18;;;;;;;1.30;1.30;;;21.20;97.40;;;;;;5144116;27;20466;-85
2023/07/02 12:42:45;;;;;;;1.60;1.50;;;22.20;98.50;;;;;;5147394;27;20038;-84
2023/07/02 12:45:11;;;;;;;1.20;1.20;;;22.10;96.90;;;;;;5143745;27;20408;-90
2023/07/02 12:47:38;;;;;;;1.10;1.10;;;22.60;97.80;;;;;;5143209;27;20042;-85